sensor_id;sensor_type;location;lat;lon;timestamp;pressure;altitude;pressure_sealevel;temperature;humidity
77299;BME280;66361;52.034;20.656;2023-07-20T00:00:02;99059.00;;;15.05;84.82
77299;BME280;66361;52.034;20.656;2023-07-20T00:04:28;99060.66;;;15.06;84.42
77299;BME280;66361;52.034;20.656;2023-07-20T00:08:31;99050.56;;;15.10;85.19
77299;BME280;66361;52.034;20.656;2023-07-20T00:12:34;99048.59;;;15.12;84.89
77299;BME280;66361;52.034;20.656;2023-07-20T00:16:38;99049.72;;;15.09;84.66
77299;BME280;66361;52.034;20.656;2023-07-20T00:20:42;99057.53;;;14.93;84.69
77299;BME280;66361;52.034;20.656;2023-07-20T00:24:45;99060.84;;;14.77;86.36
77299;BME280;66361;52.034;20.656;2023-07-20T00:28:50;99063.41;;;14.69;87.78
77299;BME280;66361;52.034;20.656;2023-07-20T00:32:53;99056.59;;;14.67;88.90
77299;BME280;66361;52.034;20.656;2023-07-20T00:36:57;99061.34;;;14.63;89.11
77299;BME280;66361;52.034;20.656;2023-07-20T00:41:01;99057.88;;;14.63;90.61
77299;BME280;66361;52.034;20.656;2023-07-20T00:45:05;99062.34;;;14.62;90.20
77299;BME280;66361;52.034;20.656;2023-07-20T00:49:08;99061.13;;;14.57;89.68
77299;BME280;66361;52.034;20.656;2023-07-20T00:53:16;99066.56;;;14.55;89.26
77299;BME280;66361;52.034;20.656;2023-07-20T00:57:20;99071.56;;;14.58;90.55
77299;BME280;66361;52.034;20.656;2023-07-20T01:01:22;99064.16;;;14.62;90.64
77299;BME280;66361;52.034;20.656;2023-07-20T01:05:31;99046.16;;;14.55;89.42
77299;BME280;66361;52.034;20.656;2023-07-20T01:09:43;99062.28;;;14.44;90.13
77299;BME280;66361;52.034;20.656;2023-07-20T01:13:47;99053.28;;;14.28;92.19
77299;BME280;66361;52.034;20.656;2023-07-20T01:17:50;99052.50;;;14.08;92.73
77299;BME280;66361;52.034;20.656;2023-07-20T01:21:57;99051.28;;;13.93;95.21
77299;BME280;66361;52.034;20.656;2023-07-20T01:26:10;99055.63;;;13.75;95.33
77299;BME280;66361;52.034;20.656;2023-07-20T01:30:28;99066.41;;;13.64;96.25
77299;BME280;66361;52.034;20.656;2023-07-20T01:34:40;99060.28;;;13.53;96.89
77299;BME280;66361;52.034;20.656;2023-07-20T01:38:44;99052.06;;;13.37;96.35
77299;BME280;66361;52.034;20.656;2023-07-20T01:42:48;99052.50;;;13.23;97.89
77299;BME280;66361;52.034;20.656;2023-07-20T01:46:51;99063.50;;;13.19;99.69
77299;BME280;66361;52.034;20.656;2023-07-20T01:50:58;99063.38;;;13.10;100.00
77299;BME280;66361;52.034;20.656;2023-07-20T01:55:01;99065.47;;;13.07;100.00
77299;BME280;66361;52.034;20.656;2023-07-20T01:59:06;99076.34;;;13.14;100.00
77299;BME280;66361;52.034;20.656;2023-07-20T02:03:09;99080.66;;;13.24;100.00
77299;BME280;66361;52.034;20.656;2023-07-20T02:07:15;99077.19;;;13.33;100.00
77299;BME280;66361;52.034;20.656;2023-07-20T02:11:18;99076.34;;;13.42;100.00
77299;BME280;66361;52.034;20.656;2023-07-20T02:15:23;99063.66;;;13.55;99.50
77299;BME280;66361;52.034;20.656;2023-07-20T02:19:27;99071.03;;;13.62;97.78
77299;BME280;66361;52.034;20.656;2023-07-20T02:23:31;99072.38;;;13.75;99.63
77299;BME280;66361;52.034;20.656;2023-07-20T02:27:36;99076.13;;;13.82;98.85
77299;BME280;66361;52.034;20.656;2023-07-20T02:31:40;99070.84;;;13.82;97.98
77299;BME280;66361;52.034;20.656;2023-07-20T02:35:44;99069.31;;;13.89;98.83
77299;BME280;66361;52.034;20.656;2023-07-20T02:39:49;99064.81;;;13.99;99.02
77299;BME280;66361;52.034;20.656;2023-07-20T02:43:53;99065.66;;;14.00;99.00
77299;BME280;66361;52.034;20.656;2023-07-20T02:47:57;99072.34;;;14.04;98.68
77299;BME280;66361;52.034;20.656;2023-07-20T02:52:01;99074.84;;;14.05;99.20
77299;BME280;66361;52.034;20.656;2023-07-20T02:56:05;99061.44;;;14.07;98.54
77299;BME280;66361;52.034;20.656;2023-07-20T03:00:09;99079.75;;;14.10;99.13
77299;BME280;66361;52.034;20.656;2023-07-20T03:04:13;99083.91;;;14.13;98.20
77299;BME280;66361;52.034;20.656;2023-07-20T03:08:16;99084.91;;;14.12;97.62
77299;BME280;66361;52.034;20.656;2023-07-20T03:12:23;99100.69;;;14.13;98.21
77299;BME280;66361;52.034;20.656;2023-07-20T03:16:27;99101.94;;;14.19;98.45
77299;BME280;66361;52.034;20.656;2023-07-20T03:20:31;99101.50;;;14.23;97.33
77299;BME280;66361;52.034;20.656;2023-07-20T03:24:34;99101.88;;;14.28;98.71
77299;BME280;66361;52.034;20.656;2023-07-20T03:28:40;99105.25;;;14.30;97.21
77299;BME280;66361;52.034;20.656;2023-07-20T03:32:43;99109.56;;;14.31;96.92
77299;BME280;66361;52.034;20.656;2023-07-20T03:36:46;99115.56;;;14.33;98.26
77299;BME280;66361;52.034;20.656;2023-07-20T03:40:50;99133.19;;;14.34;98.47
77299;BME280;66361;52.034;20.656;2023-07-20T03:44:55;99143.50;;;14.37;99.61
77299;BME280;66361;52.034;20.656;2023-07-20T03:48:58;99175.34;;;14.37;100.00
77299;BME280;66361;52.034;20.656;2023-07-20T03:53:01;99181.03;;;14.42;100.00
77299;BME280;66361;52.034;20.656;2023-07-20T03:57:08;99189.19;;;14.41;100.00
77299;BME280;66361;52.034;20.656;2023-07-20T04:01:13;99190.84;;;14.42;100.00
77299;BME280;66361;52.034;20.656;2023-07-20T04:05:18;99194.31;;;14.42;100.00
77299;BME280;66361;52.034;20.656;2023-07-20T04:09:21;99204.50;;;14.47;100.00
77299;BME280;66361;52.034;20.656;2023-07-20T04:13:24;99194.00;;;14.55;100.00
77299;BME280;66361;52.034;20.656;2023-07-20T04:17:29;99209.81;;;14.57;100.00
77299;BME280;66361;52.034;20.656;2023-07-20T04:21:39;99206.69;;;14.61;100.00
77299;BME280;66361;52.034;20.656;2023-07-20T04:25:43;99216.34;;;14.62;100.00
77299;BME280;66361;52.034;20.656;2023-07-20T04:29:47;99207.72;;;14.60;100.00
77299;BME280;66361;52.034;20.656;2023-07-20T04:33:51;99216.06;;;14.65;100.00
77299;BME280;66361;52.034;20.656;2023-07-20T04:37:57;99208.06;;;14.75;100.00
77299;BME280;66361;52.034;20.656;2023-07-20T04:42:00;99210.53;;;14.86;100.00
77299;BME280;66361;52.034;20.656;2023-07-20T04:46:03;99210.19;;;14.98;100.00
77299;BME280;66361;52.034;20.656;2023-07-20T04:50:08;99207.31;;;15.19;100.00
77299;BME280;66361;52.034;20.656;2023-07-20T04:54:11;99220.41;;;15.30;100.00
77299;BME280;66361;52.034;20.656;2023-07-20T04:58:15;99224.56;;;15.33;100.00
77299;BME280;66361;52.034;20.656;2023-07-20T05:02:20;99218.16;;;15.35;100.00
77299;BME280;66361;52.034;20.656;2023-07-20T05:06:24;99218.00;;;15.37;100.00
77299;BME280;66361;52.034;20.656;2023-07-20T05:10:27;99210.72;;;15.39;100.00
77299;BME280;66361;52.034;20.656;2023-07-20T05:14:31;99216.41;;;15.44;100.00
77299;BME280;66361;52.034;20.656;2023-07-20T05:18:34;99215.34;;;15.37;100.00
77299;BME280;66361;52.034;20.656;2023-07-20T05:22:39;99218.41;;;15.32;100.00
77299;BME280;66361;52.034;20.656;2023-07-20T05:26:42;99217.88;;;15.29;100.00
77299;BME280;66361;52.034;20.656;2023-07-20T05:30:46;99218.28;;;15.34;100.00
77299;BME280;66361;52.034;20.656;2023-07-20T05:34:52;99213.25;;;15.31;100.00
77299;BME280;66361;52.034;20.656;2023-07-20T05:44:12;99204.88;;;15.26;100.00
77299;BME280;66361;52.034;20.656;2023-07-20T05:48:16;99202.66;;;15.21;100.00
77299;BME280;66361;52.034;20.656;2023-07-20T05:52:22;99192.56;;;15.25;100.00
77299;BME280;66361;52.034;20.656;2023-07-20T05:56:26;99198.91;;;15.24;100.00
77299;BME280;66361;52.034;20.656;2023-07-20T06:00:31;99202.94;;;15.28;100.00
77299;BME280;66361;52.034;20.656;2023-07-20T06:04:34;99195.78;;;15.28;100.00
77299;BME280;66361;52.034;20.656;2023-07-20T06:08:38;99199.25;;;15.38;100.00
77299;BME280;66361;52.034;20.656;2023-07-20T06:12:41;99192.25;;;15.55;100.00
77299;BME280;66361;52.034;20.656;2023-07-20T06:16:48;99179.13;;;15.71;100.00
77299;BME280;66361;52.034;20.656;2023-07-20T06:20:51;99187.09;;;15.89;100.00
77299;BME280;66361;52.034;20.656;2023-07-20T06:24:54;99180.75;;;16.08;100.00
77299;BME280;66361;52.034;20.656;2023-07-20T06:28:58;99175.50;;;16.16;100.00
77299;BME280;66361;52.034;20.656;2023-07-20T06:33:02;99168.03;;;16.19;100.00
77299;BME280;66361;52.034;20.656;2023-07-20T06:37:07;99172.06;;;16.23;100.00
77299;BME280;66361;52.034;20.656;2023-07-20T06:41:10;99186.47;;;16.38;100.00
77299;BME280;66361;52.034;20.656;2023-07-20T06:45:17;99187.63;;;16.54;100.00
77299;BME280;66361;52.034;20.656;2023-07-20T06:49:28;99193.56;;;16.73;100.00
77299;BME280;66361;52.034;20.656;2023-07-20T06:53:31;99199.34;;;16.69;100.00
77299;BME280;66361;52.034;20.656;2023-07-20T06:57:34;99202.25;;;16.83;100.00
77299;BME280;66361;52.034;20.656;2023-07-20T07:01:37;99192.81;;;16.89;99.98
77299;BME280;66361;52.034;20.656;2023-07-20T07:05:45;99195.44;;;16.81;100.00
77299;BME280;66361;52.034;20.656;2023-07-20T07:09:51;99201.22;;;16.76;100.00
77299;BME280;66361;52.034;20.656;2023-07-20T07:13:55;99199.16;;;16.62;100.00
77299;BME280;66361;52.034;20.656;2023-07-20T07:17:58;99201.91;;;16.53;100.00
77299;BME280;66361;52.034;20.656;2023-07-20T07:22:06;99204.13;;;16.57;100.00
77299;BME280;66361;52.034;20.656;2023-07-20T07:26:09;99219.16;;;16.66;100.00
77299;BME280;66361;52.034;20.656;2023-07-20T07:30:13;99216.84;;;16.71;100.00
77299;BME280;66361;52.034;20.656;2023-07-20T07:34:15;99210.94;;;16.60;100.00
77299;BME280;66361;52.034;20.656;2023-07-20T07:38:20;99219.00;;;16.68;100.00
77299;BME280;66361;52.034;20.656;2023-07-20T07:42:48;99221.91;;;16.82;100.00
77299;BME280;66361;52.034;20.656;2023-07-20T07:46:51;99221.63;;;16.85;100.00
77299;BME280;66361;52.034;20.656;2023-07-20T07:50:55;99237.63;;;16.93;100.00
77299;BME280;66361;52.034;20.656;2023-07-20T07:54:59;99240.47;;;16.92;100.00
77299;BME280;66361;52.034;20.656;2023-07-20T07:59:02;99245.38;;;16.79;100.00
77299;BME280;66361;52.034;20.656;2023-07-20T08:03:06;99244.25;;;16.81;100.00
77299;BME280;66361;52.034;20.656;2023-07-20T08:07:10;99250.25;;;16.83;100.00
77299;BME280;66361;52.034;20.656;2023-07-20T08:11:14;99259.22;;;16.82;100.00
77299;BME280;66361;52.034;20.656;2023-07-20T08:15:19;99271.94;;;16.88;100.00
77299;BME280;66361;52.034;20.656;2023-07-20T08:19:22;99269.06;;;16.82;100.00
77299;BME280;66361;52.034;20.656;2023-07-20T08:23:26;99273.91;;;16.86;100.00
77299;BME280;66361;52.034;20.656;2023-07-20T08:27:31;99284.63;;;16.94;100.00
77299;BME280;66361;52.034;20.656;2023-07-20T08:31:33;99282.44;;;17.16;100.00
77299;BME280;66361;52.034;20.656;2023-07-20T08:35:36;99285.75;;;17.18;100.00
77299;BME280;66361;52.034;20.656;2023-07-20T08:39:40;99293.16;;;17.32;100.00
77299;BME280;66361;52.034;20.656;2023-07-20T08:43:46;99295.19;;;17.38;100.00
77299;BME280;66361;52.034;20.656;2023-07-20T08:47:50;99301.03;;;17.41;100.00
77299;BME280;66361;52.034;20.656;2023-07-20T08:51:53;99298.44;;;17.58;97.77
77299;BME280;66361;52.034;20.656;2023-07-20T08:55:58;99311.53;;;17.43;98.40
77299;BME280;66361;52.034;20.656;2023-07-20T09:00:04;99310.69;;;17.42;98.05
77299;BME280;66361;52.034;20.656;2023-07-20T09:04:09;99311.72;;;17.41;99.96
77299;BME280;66361;52.034;20.656;2023-07-20T09:08:12;99300.91;;;17.51;98.13
77299;BME280;66361;52.034;20.656;2023-07-20T09:12:15;99307.19;;;17.68;95.80
77299;BME280;66361;52.034;20.656;2023-07-20T09:16:20;99309.47;;;18.37;93.21
77299;BME280;66361;52.034;20.656;2023-07-20T09:20:23;99302.09;;;19.67;87.68
77299;BME280;66361;52.034;20.656;2023-07-20T09:24:28;99303.50;;;20.08;81.70
77299;BME280;66361;52.034;20.656;2023-07-20T09:28:41;99312.69;;;20.82;76.72
77299;BME280;66361;52.034;20.656;2023-07-20T09:32:49;99306.22;;;21.94;71.54
77299;BME280;66361;52.034;20.656;2023-07-20T09:36:55;99315.63;;;22.19;67.59
77299;BME280;66361;52.034;20.656;2023-07-20T09:41:00;99315.19;;;22.58;66.62
77299;BME280;66361;52.034;20.656;2023-07-20T09:45:07;99306.19;;;22.44;64.38
77299;BME280;66361;52.034;20.656;2023-07-20T09:49:11;99304.75;;;22.69;65.94
77299;BME280;66361;52.034;20.656;2023-07-20T09:53:20;99312.06;;;21.47;67.57
77299;BME280;66361;52.034;20.656;2023-07-20T09:57:23;99311.31;;;20.86;68.98
77299;BME280;66361;52.034;20.656;2023-07-20T10:01:29;99306.50;;;20.82;72.78
77299;BME280;66361;52.034;20.656;2023-07-20T10:05:36;99304.97;;;20.64;68.70
77299;BME280;66361;52.034;20.656;2023-07-20T10:09:40;99290.09;;;22.30;67.42
77299;BME280;66361;52.034;20.656;2023-07-20T10:13:46;99292.53;;;22.46;62.61
77299;BME280;66361;52.034;20.656;2023-07-20T10:17:57;99290.41;;;22.62;63.58
77299;BME280;66361;52.034;20.656;2023-07-20T10:22:22;99301.16;;;22.90;61.95
77299;BME280;66361;52.034;20.656;2023-07-20T10:26:27;99291.91;;;23.27;62.36
77299;BME280;66361;52.034;20.656;2023-07-20T10:30:32;99297.53;;;22.98;61.50
77299;BME280;66361;52.034;20.656;2023-07-20T10:34:36;99296.41;;;23.48;63.38
77299;BME280;66361;52.034;20.656;2023-07-20T10:38:40;99287.66;;;23.46;62.10
77299;BME280;66361;52.034;20.656;2023-07-20T10:42:47;99287.94;;;23.16;60.55
77299;BME280;66361;52.034;20.656;2023-07-20T10:46:58;99277.09;;;23.38;59.50
77299;BME280;66361;52.034;20.656;2023-07-20T10:51:11;99280.94;;;24.30;60.19
77299;BME280;66361;52.034;20.656;2023-07-20T10:55:16;99276.66;;;24.69;57.08
77299;BME280;66361;52.034;20.656;2023-07-20T11:03:39;99279.38;;;23.41;57.33
77299;BME280;66361;52.034;20.656;2023-07-20T11:07:48;99274.97;;;23.27;57.65
77299;BME280;66361;52.034;20.656;2023-07-20T11:12:09;99275.56;;;23.29;59.14
77299;BME280;66361;52.034;20.656;2023-07-20T11:16:12;99285.72;;;22.92;59.34
77299;BME280;66361;52.034;20.656;2023-07-20T11:20:16;99268.13;;;22.96;58.25
77299;BME280;66361;52.034;20.656;2023-07-20T11:24:25;99267.72;;;22.93;58.97
77299;BME280;66361;52.034;20.656;2023-07-20T11:28:31;99260.31;;;22.52;59.82
77299;BME280;66361;52.034;20.656;2023-07-20T11:32:34;99247.25;;;22.49;58.46
77299;BME280;66361;52.034;20.656;2023-07-20T11:36:39;99246.94;;;22.59;62.66
77299;BME280;66361;52.034;20.656;2023-07-20T11:40:45;99240.06;;;21.93;67.99
77299;BME280;66361;52.034;20.656;2023-07-20T11:44:52;99260.91;;;21.25;74.12
77299;BME280;66361;52.034;20.656;2023-07-20T11:48:59;99281.44;;;21.04;76.15
77299;BME280;66361;52.034;20.656;2023-07-20T11:53:09;99282.88;;;21.94;77.71
77299;BME280;66361;52.034;20.656;2023-07-20T11:57:16;99280.44;;;22.35;72.21
77299;BME280;66361;52.034;20.656;2023-07-20T12:01:21;99284.91;;;22.71;66.52
77299;BME280;66361;52.034;20.656;2023-07-20T12:05:28;99277.63;;;22.43;66.43
77299;BME280;66361;52.034;20.656;2023-07-20T12:09:32;99296.63;;;22.63;68.40
77299;BME280;66361;52.034;20.656;2023-07-20T12:13:51;99294.50;;;22.58;63.83
77299;BME280;66361;52.034;20.656;2023-07-20T12:18:09;99297.34;;;22.29;64.39
77299;BME280;66361;52.034;20.656;2023-07-20T12:22:13;99296.50;;;22.29;65.54
77299;BME280;66361;52.034;20.656;2023-07-20T12:26:16;99300.53;;;22.03;64.47
77299;BME280;66361;52.034;20.656;2023-07-20T12:30:19;99295.16;;;22.03;62.04
77299;BME280;66361;52.034;20.656;2023-07-20T12:34:23;99302.66;;;22.08;64.90
77299;BME280;66361;52.034;20.656;2023-07-20T12:38:27;99295.03;;;22.47;62.17
77299;BME280;66361;52.034;20.656;2023-07-20T12:42:30;99285.41;;;22.59;61.10
77299;BME280;66361;52.034;20.656;2023-07-20T12:46:34;99272.88;;;22.24;61.71
77299;BME280;66361;52.034;20.656;2023-07-20T12:50:40;99260.59;;;22.36;60.79
77299;BME280;66361;52.034;20.656;2023-07-20T12:54:43;99255.72;;;22.46;60.29
77299;BME280;66361;52.034;20.656;2023-07-20T12:58:47;99249.94;;;22.49;61.58
77299;BME280;66361;52.034;20.656;2023-07-20T13:02:52;99249.75;;;22.79;61.45
77299;BME280;66361;52.034;20.656;2023-07-20T13:06:59;99236.34;;;23.13;58.82
77299;BME280;66361;52.034;20.656;2023-07-20T13:11:22;99227.47;;;23.60;57.76
77299;BME280;66361;52.034;20.656;2023-07-20T13:15:29;99225.63;;;23.67;54.34
77299;BME280;66361;52.034;20.656;2023-07-20T13:19:33;99220.53;;;23.38;55.83
77299;BME280;66361;52.034;20.656;2023-07-20T13:23:38;99223.13;;;22.35;58.23
77299;BME280;66361;52.034;20.656;2023-07-20T13:27:41;99229.09;;;22.30;59.08
77299;BME280;66361;52.034;20.656;2023-07-20T13:31:45;99233.69;;;21.94;61.52
77299;BME280;66361;52.034;20.656;2023-07-20T13:35:49;99241.25;;;21.69;63.92
77299;BME280;66361;52.034;20.656;2023-07-20T13:39:53;99245.72;;;21.98;63.22
77299;BME280;66361;52.034;20.656;2023-07-20T13:43:58;99245.19;;;22.09;63.10
77299;BME280;66361;52.034;20.656;2023-07-20T13:48:01;99250.03;;;22.13;63.76
77299;BME280;66361;52.034;20.656;2023-07-20T13:52:07;99250.09;;;22.20;64.03
77299;BME280;66361;52.034;20.656;2023-07-20T13:56:17;99260.59;;;21.79;64.77
77299;BME280;66361;52.034;20.656;2023-07-20T14:00:21;99263.00;;;21.74;64.76
77299;BME280;66361;52.034;20.656;2023-07-20T14:04:29;99254.97;;;21.59;63.36
77299;BME280;66361;52.034;20.656;2023-07-20T14:08:32;99256.75;;;21.52;64.26
77299;BME280;66361;52.034;20.656;2023-07-20T14:12:36;99251.41;;;21.08;65.30
77299;BME280;66361;52.034;20.656;2023-07-20T14:16:40;99257.75;;;20.78;66.25
77299;BME280;66361;52.034;20.656;2023-07-20T14:20:43;99254.84;;;20.65;65.82
77299;BME280;66361;52.034;20.656;2023-07-20T14:24:47;99245.66;;;20.45;68.68
77299;BME280;66361;52.034;20.656;2023-07-20T14:28:51;99252.59;;;20.31;70.58
77299;BME280;66361;52.034;20.656;2023-07-20T14:32:55;99242.78;;;20.23;68.75
77299;BME280;66361;52.034;20.656;2023-07-20T14:36:59;99238.47;;;20.00;70.26
77299;BME280;66361;52.034;20.656;2023-07-20T14:41:03;99251.88;;;20.45;69.70
77299;BME280;66361;52.034;20.656;2023-07-20T14:45:12;99241.88;;;21.35;67.60
77299;BME280;66361;52.034;20.656;2023-07-20T14:49:16;99244.78;;;21.69;65.50
77299;BME280;66361;52.034;20.656;2023-07-20T14:53:26;99242.56;;;21.94;63.75
77299;BME280;66361;52.034;20.656;2023-07-20T14:57:34;99227.34;;;22.01;62.71
77299;BME280;66361;52.034;20.656;2023-07-20T15:01:42;99231.88;;;21.80;65.51
77299;BME280;66361;52.034;20.656;2023-07-20T15:05:47;99236.94;;;21.89;64.00
77299;BME280;66361;52.034;20.656;2023-07-20T15:09:50;99238.09;;;21.80;61.05
77299;BME280;66361;52.034;20.656;2023-07-20T15:13:54;99233.50;;;21.59;61.46
77299;BME280;66361;52.034;20.656;2023-07-20T15:17:59;99226.25;;;21.39;62.47
77299;BME280;66361;52.034;20.656;2023-07-20T15:22:03;99231.41;;;21.40;64.89
77299;BME280;66361;52.034;20.656;2023-07-20T15:26:06;99229.06;;;21.52;64.00
77299;BME280;66361;52.034;20.656;2023-07-20T15:30:10;99229.16;;;21.44;63.02
77299;BME280;66361;52.034;20.656;2023-07-20T15:34:35;99237.25;;;21.29;63.46
77299;BME280;66361;52.034;20.656;2023-07-20T15:38:41;99253.41;;;21.21;62.56
77299;BME280;66361;52.034;20.656;2023-07-20T15:42:44;99243.66;;;21.28;62.38
77299;BME280;66361;52.034;20.656;2023-07-20T15:46:54;99237.53;;;21.05;63.72
77299;BME280;66361;52.034;20.656;2023-07-20T15:50:59;99243.97;;;20.81;64.82
77299;BME280;66361;52.034;20.656;2023-07-20T15:55:03;99249.53;;;20.94;62.51
77299;BME280;66361;52.034;20.656;2023-07-20T15:59:08;99251.94;;;21.04;63.93
77299;BME280;66361;52.034;20.656;2023-07-20T16:03:12;99267.13;;;20.97;64.61
77299;BME280;66361;52.034;20.656;2023-07-20T16:07:18;99278.31;;;21.00;63.83
77299;BME280;66361;52.034;20.656;2023-07-20T16:11:21;99286.53;;;21.13;63.97
77299;BME280;66361;52.034;20.656;2023-07-20T16:15:28;99289.53;;;21.48;63.80
77299;BME280;66361;52.034;20.656;2023-07-20T16:19:34;99334.47;;;21.02;64.17
77299;BME280;66361;52.034;20.656;2023-07-20T16:23:39;99343.94;;;19.60;60.36
77299;BME280;66361;52.034;20.656;2023-07-20T16:27:42;99333.25;;;18.80;62.35
77299;BME280;66361;52.034;20.656;2023-07-20T16:31:46;99331.25;;;18.58;63.26
77299;BME280;66361;52.034;20.656;2023-07-20T16:35:51;99326.31;;;18.29;63.81
77299;BME280;66361;52.034;20.656;2023-07-20T16:40:00;99333.00;;;18.33;64.84
77299;BME280;66361;52.034;20.656;2023-07-20T16:44:06;99330.47;;;18.08;66.76
77299;BME280;66361;52.034;20.656;2023-07-20T16:48:11;99325.94;;;18.00;68.41
77299;BME280;66361;52.034;20.656;2023-07-20T16:52:19;99324.94;;;17.93;68.65
77299;BME280;66361;52.034;20.656;2023-07-20T16:56:23;99328.41;;;17.85;69.76
77299;BME280;66361;52.034;20.656;2023-07-20T17:00:26;99322.19;;;17.77;71.35
77299;BME280;66361;52.034;20.656;2023-07-20T17:04:29;99336.53;;;17.76;71.43
77299;BME280;66361;52.034;20.656;2023-07-20T17:08:32;99331.09;;;17.52;72.50
77299;BME280;66361;52.034;20.656;2023-07-20T17:12:38;99325.19;;;17.40;75.34
77299;BME280;66361;52.034;20.656;2023-07-20T17:16:41;99336.47;;;17.26;74.42
77299;BME280;66361;52.034;20.656;2023-07-20T17:20:45;99343.06;;;17.14;75.32
77299;BME280;66361;52.034;20.656;2023-07-20T17:24:51;99348.63;;;17.28;75.45
77299;BME280;66361;52.034;20.656;2023-07-20T17:28:58;99339.13;;;17.26;76.07
77299;BME280;66361;52.034;20.656;2023-07-20T17:33:01;99334.38;;;17.12;75.88
77299;BME280;66361;52.034;20.656;2023-07-20T17:37:05;99337.25;;;16.92;77.25
77299;BME280;66361;52.034;20.656;2023-07-20T17:41:11;99333.84;;;16.82;77.89
77299;BME280;66361;52.034;20.656;2023-07-20T17:45:18;99344.91;;;16.70;79.30
77299;BME280;66361;52.034;20.656;2023-07-20T17:49:21;99354.44;;;16.55;80.93
77299;BME280;66361;52.034;20.656;2023-07-20T17:53:25;99355.03;;;16.31;82.49
77299;BME280;66361;52.034;20.656;2023-07-20T17:57:28;99353.44;;;16.20;82.70
77299;BME280;66361;52.034;20.656;2023-07-20T18:01:33;99344.06;;;15.98;83.56
77299;BME280;66361;52.034;20.656;2023-07-20T18:05:37;99341.91;;;15.84;85.37
77299;BME280;66361;52.034;20.656;2023-07-20T18:09:40;99356.16;;;15.66;87.27
77299;BME280;66361;52.034;20.656;2023-07-20T18:13:43;99351.59;;;15.48;88.32
77299;BME280;66361;52.034;20.656;2023-07-20T18:17:47;99363.56;;;15.35;88.64
77299;BME280;66361;52.034;20.656;2023-07-20T18:21:50;99370.03;;;15.13;90.86
77299;BME280;66361;52.034;20.656;2023-07-20T18:25:54;99370.34;;;14.91;92.90
77299;BME280;66361;52.034;20.656;2023-07-20T18:29:57;99361.59;;;14.71;94.82
77299;BME280;66361;52.034;20.656;2023-07-20T18:34:02;99367.59;;;14.54;95.66
77299;BME280;66361;52.034;20.656;2023-07-20T18:38:05;99373.72;;;14.35;96.88
77299;BME280;66361;52.034;20.656;2023-07-20T18:42:08;99375.56;;;14.16;98.19
77299;BME280;66361;52.034;20.656;2023-07-20T18:46:14;99372.56;;;13.99;99.27
77299;BME280;66361;52.034;20.656;2023-07-20T18:50:21;99392.34;;;13.86;100.00
77299;BME280;66361;52.034;20.656;2023-07-20T18:54:24;99385.56;;;13.63;100.00
77299;BME280;66361;52.034;20.656;2023-07-20T18:58:27;99387.88;;;13.46;100.00
77299;BME280;66361;52.034;20.656;2023-07-20T19:02:30;99392.03;;;13.39;100.00
77299;BME280;66361;52.034;20.656;2023-07-20T19:06:35;99394.75;;;13.28;100.00
77299;BME280;66361;52.034;20.656;2023-07-20T19:10:38;99400.41;;;13.14;100.00
77299;BME280;66361;52.034;20.656;2023-07-20T19:14:44;99405.44;;;12.96;100.00
77299;BME280;66361;52.034;20.656;2023-07-20T19:18:48;99411.22;;;12.81;100.00
77299;BME280;66361;52.034;20.656;2023-07-20T19:22:52;99401.38;;;12.72;100.00
77299;BME280;66361;52.034;20.656;2023-07-20T19:26:57;99400.66;;;12.58;100.00
77299;BME280;66361;52.034;20.656;2023-07-20T19:31:01;99407.06;;;12.56;100.00
77299;BME280;66361;52.034;20.656;2023-07-20T19:35:05;99413.81;;;12.49;100.00
77299;BME280;66361;52.034;20.656;2023-07-20T19:39:10;99422.66;;;12.38;100.00
77299;BME280;66361;52.034;20.656;2023-07-20T19:43:13;99408.88;;;12.24;100.00
77299;BME280;66361;52.034;20.656;2023-07-20T19:47:16;99416.31;;;12.19;100.00
77299;BME280;66361;52.034;20.656;2023-07-20T19:51:20;99423.56;;;12.17;100.00
77299;BME280;66361;52.034;20.656;2023-07-20T19:55:25;99434.03;;;12.07;100.00
77299;BME280;66361;52.034;20.656;2023-07-20T19:59:31;99433.34;;;11.94;100.00
77299;BME280;66361;52.034;20.656;2023-07-20T20:03:36;99433.69;;;11.89;100.00
77299;BME280;66361;52.034;20.656;2023-07-20T20:07:42;99429.63;;;11.85;100.00
77299;BME280;66361;52.034;20.656;2023-07-20T20:11:51;99438.13;;;11.89;100.00
77299;BME280;66361;52.034;20.656;2023-07-20T20:15:54;99432.84;;;11.89;100.00
77299;BME280;66361;52.034;20.656;2023-07-20T20:19:57;99436.25;;;11.80;100.00
77299;BME280;66361;52.034;20.656;2023-07-20T20:24:15;99437.56;;;11.74;100.00
77299;BME280;66361;52.034;20.656;2023-07-20T20:28:20;99439.59;;;11.82;100.00
77299;BME280;66361;52.034;20.656;2023-07-20T20:32:24;99441.13;;;11.95;100.00
77299;BME280;66361;52.034;20.656;2023-07-20T20:36:28;99443.16;;;12.03;100.00
77299;BME280;66361;52.034;20.656;2023-07-20T20:40:31;99437.50;;;12.07;100.00
77299;BME280;66361;52.034;20.656;2023-07-20T20:44:36;99441.72;;;11.99;100.00
77299;BME280;66361;52.034;20.656;2023-07-20T20:48:40;99454.00;;;11.89;100.00
77299;BME280;66361;52.034;20.656;2023-07-20T20:52:47;99454.63;;;11.81;100.00
77299;BME280;66361;52.034;20.656;2023-07-20T20:56:56;99456.66;;;11.78;100.00
77299;BME280;66361;52.034;20.656;2023-07-20T21:01:15;99454.63;;;11.70;100.00
77299;BME280;66361;52.034;20.656;2023-07-20T21:05:36;99465.19;;;11.70;100.00
77299;BME280;66361;52.034;20.656;2023-07-20T21:09:40;99464.94;;;11.62;100.00
77299;BME280;66361;52.034;20.656;2023-07-20T21:13:48;99458.00;;;11.72;100.00
77299;BME280;66361;52.034;20.656;2023-07-20T21:17:55;99440.44;;;11.82;100.00
77299;BME280;66361;52.034;20.656;2023-07-20T21:22:02;99442.59;;;11.88;100.00